sensor_id;sensor_type;location;lat;lon;timestamp;P1;durP1;ratioP1;P2;durP2;ratioP2
45620;SDS011;31345;51.522;10.702;2023-06-14T00:00:16;5.97;;;2.80;;
45620;SDS011;31345;51.522;10.702;2023-06-14T00:02:50;5.57;;;2.60;;
45620;SDS011;31345;51.522;10.702;2023-06-14T00:05:22;4.82;;;2.70;;
45620;SDS011;31345;51.522;10.702;2023-06-14T00:07:55;3.13;;;2.20;;
45620;SDS011;31345;51.522;10.702;2023-06-14T00:10:27;3.88;;;2.65;;
45620;SDS011;31345;51.522;10.702;2023-06-14T00:13:01;3.85;;;2.50;;
45620;SDS011;31345;51.522;10.702;2023-06-14T00:15:30;4.30;;;2.30;;
45620;SDS011;31345;51.522;10.702;2023-06-14T00:18:04;6.93;;;2.70;;
45620;SDS011;31345;51.522;10.702;2023-06-14T00:20:37;6.32;;;2.53;;
45620;SDS011;31345;51.522;10.702;2023-06-14T00:23:10;5.35;;;2.53;;
45620;SDS011;31345;51.522;10.702;2023-06-14T00:25:37;3.53;;;2.50;;
45620;SDS011;31345;51.522;10.702;2023-06-14T00:28:10;8.05;;;2.72;;
45620;SDS011;31345;51.522;10.702;2023-06-14T00:30:37;4.10;;;2.60;;
45620;SDS011;31345;51.522;10.702;2023-06-14T00:33:11;4.90;;;2.72;;
45620;SDS011;31345;51.522;10.702;2023-06-14T00:35:44;3.63;;;2.53;;
45620;SDS011;31345;51.522;10.702;2023-06-14T00:38:16;5.22;;;2.33;;
45620;SDS011;31345;51.522;10.702;2023-06-14T00:40:44;3.05;;;2.20;;
45620;SDS011;31345;51.522;10.702;2023-06-14T00:43:13;4.22;;;2.30;;
45620;SDS011;31345;51.522;10.702;2023-06-14T00:45:45;5.80;;;2.53;;
45620;SDS011;31345;51.522;10.702;2023-06-14T00:48:22;5.03;;;2.35;;
45620;SDS011;31345;51.522;10.702;2023-06-14T00:50:55;3.67;;;2.60;;
45620;SDS011;31345;51.522;10.702;2023-06-14T00:53:28;4.85;;;2.78;;
45620;SDS011;31345;51.522;10.702;2023-06-14T00:56:01;6.63;;;2.80;;
45620;SDS011;31345;51.522;10.702;2023-06-14T00:58:34;3.55;;;2.53;;
45620;SDS011;31345;51.522;10.702;2023-06-14T01:01:01;5.43;;;3.05;;
45620;SDS011;31345;51.522;10.702;2023-06-14T01:03:38;4.07;;;2.85;;
45620;SDS011;31345;51.522;10.702;2023-06-14T01:06:15;4.38;;;2.33;;
45620;SDS011;31345;51.522;10.702;2023-06-14T01:09:01;4.78;;;2.80;;
45620;SDS011;31345;51.522;10.702;2023-06-14T01:11:41;4.90;;;2.72;;
45620;SDS011;31345;51.522;10.702;2023-06-14T01:14:22;4.93;;;2.88;;
45620;SDS011;31345;51.522;10.702;2023-06-14T01:16:57;4.40;;;2.60;;
45620;SDS011;31345;51.522;10.702;2023-06-14T01:19:33;3.50;;;2.53;;
45620;SDS011;31345;51.522;10.702;2023-06-14T01:22:01;4.95;;;2.80;;
45620;SDS011;31345;51.522;10.702;2023-06-14T01:24:30;4.78;;;2.47;;
45620;SDS011;31345;51.522;10.702;2023-06-14T01:27:05;4.07;;;2.42;;
45620;SDS011;31345;51.522;10.702;2023-06-14T01:29:34;3.80;;;2.55;;
45620;SDS011;31345;51.522;10.702;2023-06-14T01:32:02;4.68;;;2.53;;
45620;SDS011;31345;51.522;10.702;2023-06-14T01:34:36;4.00;;;2.45;;
45620;SDS011;31345;51.522;10.702;2023-06-14T01:37:09;4.30;;;2.80;;
45620;SDS011;31345;51.522;10.702;2023-06-14T01:39:45;3.60;;;2.47;;
45620;SDS011;31345;51.522;10.702;2023-06-14T01:42:14;6.65;;;2.78;;
45620;SDS011;31345;51.522;10.702;2023-06-14T01:44:48;5.05;;;2.40;;
45620;SDS011;31345;51.522;10.702;2023-06-14T01:47:20;5.88;;;2.72;;
45620;SDS011;31345;51.522;10.702;2023-06-14T01:49:53;5.50;;;2.75;;
45620;SDS011;31345;51.522;10.702;2023-06-14T01:52:21;4.10;;;2.80;;
45620;SDS011;31345;51.522;10.702;2023-06-14T01:54:51;6.45;;;2.75;;
45620;SDS011;31345;51.522;10.702;2023-06-14T01:57:24;3.97;;;2.80;;
45620;SDS011;31345;51.522;10.702;2023-06-14T01:59:57;4.65;;;2.50;;
45620;SDS011;31345;51.522;10.702;2023-06-14T02:02:25;9.13;;;2.92;;
45620;SDS011;31345;51.522;10.702;2023-06-14T02:04:53;4.43;;;2.53;;
45620;SDS011;31345;51.522;10.702;2023-06-14T02:07:28;3.95;;;2.70;;
45620;SDS011;31345;51.522;10.702;2023-06-14T02:09:58;3.85;;;2.53;;
45620;SDS011;31345;51.522;10.702;2023-06-14T02:12:28;6.00;;;2.70;;
45620;SDS011;31345;51.522;10.702;2023-06-14T02:15:03;5.25;;;2.60;;
45620;SDS011;31345;51.522;10.702;2023-06-14T02:17:32;4.72;;;2.50;;
45620;SDS011;31345;51.522;10.702;2023-06-14T02:20:06;5.70;;;2.58;;
45620;SDS011;31345;51.522;10.702;2023-06-14T02:22:40;5.22;;;2.40;;
45620;SDS011;31345;51.522;10.702;2023-06-14T02:25:09;4.90;;;2.42;;
45620;SDS011;31345;51.522;10.702;2023-06-14T02:27:36;5.28;;;2.80;;
45620;SDS011;31345;51.522;10.702;2023-06-14T02:30:04;5.60;;;3.10;;
45620;SDS011;31345;51.522;10.702;2023-06-14T02:32:33;5.82;;;2.40;;
45620;SDS011;31345;51.522;10.702;2023-06-14T02:35:01;4.57;;;2.40;;
45620;SDS011;31345;51.522;10.702;2023-06-14T02:37:34;5.20;;;2.40;;
45620;SDS011;31345;51.522;10.702;2023-06-14T02:40:09;4.63;;;2.78;;
45620;SDS011;31345;51.522;10.702;2023-06-14T02:42:42;3.97;;;2.80;;
45620;SDS011;31345;51.522;10.702;2023-06-14T02:45:09;4.20;;;2.40;;
45620;SDS011;31345;51.522;10.702;2023-06-14T02:47:42;3.50;;;2.38;;
45620;SDS011;31345;51.522;10.702;2023-06-14T02:50:12;5.82;;;2.55;;
45620;SDS011;31345;51.522;10.702;2023-06-14T02:52:39;5.18;;;2.58;;
45620;SDS011;31345;51.522;10.702;2023-06-14T02:55:15;7.63;;;2.95;;
45620;SDS011;31345;51.522;10.702;2023-06-14T02:57:48;4.35;;;2.30;;
45620;SDS011;31345;51.522;10.702;2023-06-14T03:00:27;4.28;;;2.35;;
45620;SDS011;31345;51.522;10.702;2023-06-14T03:02:56;6.97;;;3.08;;
45620;SDS011;31345;51.522;10.702;2023-06-14T03:05:27;4.80;;;2.50;;
45620;SDS011;31345;51.522;10.702;2023-06-14T03:07:55;5.60;;;2.45;;
45620;SDS011;31345;51.522;10.702;2023-06-14T03:10:29;4.03;;;2.20;;
45620;SDS011;31345;51.522;10.702;2023-06-14T03:13:03;3.13;;;2.08;;
45620;SDS011;31345;51.522;10.702;2023-06-14T03:15:31;4.85;;;2.72;;
45620;SDS011;31345;51.522;10.702;2023-06-14T03:18:04;4.20;;;2.45;;
45620;SDS011;31345;51.522;10.702;2023-06-14T03:20:34;4.32;;;2.67;;
45620;SDS011;31345;51.522;10.702;2023-06-14T03:23:02;3.88;;;2.60;;
45620;SDS011;31345;51.522;10.702;2023-06-14T03:25:38;5.03;;;2.70;;
45620;SDS011;31345;51.522;10.702;2023-06-14T03:28:09;3.42;;;2.42;;
45620;SDS011;31345;51.522;10.702;2023-06-14T03:30:37;4.30;;;2.55;;
45620;SDS011;31345;51.522;10.702;2023-06-14T03:33:05;3.97;;;2.45;;
45620;SDS011;31345;51.522;10.702;2023-06-14T03:35:42;3.50;;;2.03;;
45620;SDS011;31345;51.522;10.702;2023-06-14T03:38:10;9.40;;;2.72;;
45620;SDS011;31345;51.522;10.702;2023-06-14T03:40:45;5.45;;;2.65;;
45620;SDS011;31345;51.522;10.702;2023-06-14T03:43:12;5.13;;;2.50;;
45620;SDS011;31345;51.522;10.702;2023-06-14T03:45:45;4.35;;;2.30;;
45620;SDS011;31345;51.522;10.702;2023-06-14T03:48:18;5.55;;;2.65;;
45620;SDS011;31345;51.522;10.702;2023-06-14T03:50:46;5.07;;;2.75;;
45620;SDS011;31345;51.522;10.702;2023-06-14T03:53:18;3.35;;;2.45;;
45620;SDS011;31345;51.522;10.702;2023-06-14T03:55:51;6.35;;;2.78;;
45620;SDS011;31345;51.522;10.702;2023-06-14T03:58:26;2.92;;;2.35;;
45620;SDS011;31345;51.522;10.702;2023-06-14T04:00:59;4.22;;;2.40;;
45620;SDS011;31345;51.522;10.702;2023-06-14T04:03:31;4.55;;;2.60;;
45620;SDS011;31345;51.522;10.702;2023-06-14T04:06:05;3.35;;;2.53;;
45620;SDS011;31345;51.522;10.702;2023-06-14T04:08:33;3.60;;;2.20;;
45620;SDS011;31345;51.522;10.702;2023-06-14T04:11:08;4.45;;;3.08;;
45620;SDS011;31345;51.522;10.702;2023-06-14T04:13:40;4.13;;;2.70;;
45620;SDS011;31345;51.522;10.702;2023-06-14T04:16:13;6.00;;;2.47;;
45620;SDS011;31345;51.522;10.702;2023-06-14T04:18:46;5.63;;;2.30;;
45620;SDS011;31345;51.522;10.702;2023-06-14T04:21:19;4.63;;;2.50;;
45620;SDS011;31345;51.522;10.702;2023-06-14T04:23:52;6.03;;;2.67;;
45620;SDS011;31345;51.522;10.702;2023-06-14T04:26:30;4.47;;;3.10;;
45620;SDS011;31345;51.522;10.702;2023-06-14T04:29:04;4.95;;;3.03;;
45620;SDS011;31345;51.522;10.702;2023-06-14T04:31:40;5.25;;;2.70;;
45620;SDS011;31345;51.522;10.702;2023-06-14T04:34:10;4.05;;;2.55;;
45620;SDS011;31345;51.522;10.702;2023-06-14T04:36:45;3.40;;;2.30;;
45620;SDS011;31345;51.522;10.702;2023-06-14T04:39:20;4.88;;;2.67;;
45620;SDS011;31345;51.522;10.702;2023-06-14T04:41:50;3.70;;;2.75;;
45620;SDS011;31345;51.522;10.702;2023-06-14T04:44:23;5.38;;;2.92;;
45620;SDS011;31345;51.522;10.702;2023-06-14T04:46:56;4.90;;;3.13;;
45620;SDS011;31345;51.522;10.702;2023-06-14T04:49:24;4.75;;;2.75;;
45620;SDS011;31345;51.522;10.702;2023-06-14T04:51:58;4.30;;;2.85;;
45620;SDS011;31345;51.522;10.702;2023-06-14T04:54:32;3.92;;;2.50;;
45620;SDS011;31345;51.522;10.702;2023-06-14T04:57:09;3.15;;;2.40;;
45620;SDS011;31345;51.522;10.702;2023-06-14T04:59:40;5.72;;;3.00;;
45620;SDS011;31345;51.522;10.702;2023-06-14T05:02:07;6.05;;;3.15;;
45620;SDS011;31345;51.522;10.702;2023-06-14T05:04:40;4.78;;;3.05;;
45620;SDS011;31345;51.522;10.702;2023-06-14T05:07:14;7.15;;;2.85;;
45620;SDS011;31345;51.522;10.702;2023-06-14T05:09:44;5.25;;;3.55;;
45620;SDS011;31345;51.522;10.702;2023-06-14T05:12:21;5.38;;;3.25;;
45620;SDS011;31345;51.522;10.702;2023-06-14T05:14:54;5.65;;;3.13;;
45620;SDS011;31345;51.522;10.702;2023-06-14T05:17:30;5.05;;;3.15;;
45620;SDS011;31345;51.522;10.702;2023-06-14T05:19:58;6.43;;;3.22;;
45620;SDS011;31345;51.522;10.702;2023-06-14T05:22:28;7.13;;;3.70;;
45620;SDS011;31345;51.522;10.702;2023-06-14T05:24:57;4.15;;;2.95;;
45620;SDS011;31345;51.522;10.702;2023-06-14T05:27:30;5.05;;;3.25;;
45620;SDS011;31345;51.522;10.702;2023-06-14T05:30:03;6.05;;;3.72;;
45620;SDS011;31345;51.522;10.702;2023-06-14T05:32:36;6.45;;;3.78;;
45620;SDS011;31345;51.522;10.702;2023-06-14T05:35:09;5.22;;;3.90;;
45620;SDS011;31345;51.522;10.702;2023-06-14T05:37:36;4.53;;;3.00;;
45620;SDS011;31345;51.522;10.702;2023-06-14T05:40:04;8.10;;;3.15;;
45620;SDS011;31345;51.522;10.702;2023-06-14T05:42:41;7.68;;;3.03;;
45620;SDS011;31345;51.522;10.702;2023-06-14T05:45:09;6.22;;;3.08;;
45620;SDS011;31345;51.522;10.702;2023-06-14T05:47:41;5.57;;;3.58;;
45620;SDS011;31345;51.522;10.702;2023-06-14T05:50:14;5.18;;;3.47;;
45620;SDS011;31345;51.522;10.702;2023-06-14T05:52:41;5.30;;;3.70;;
45620;SDS011;31345;51.522;10.702;2023-06-14T05:55:15;4.63;;;3.42;;
45620;SDS011;31345;51.522;10.702;2023-06-14T05:57:49;6.00;;;3.85;;
45620;SDS011;31345;51.522;10.702;2023-06-14T06:00:22;6.65;;;3.50;;
45620;SDS011;31345;51.522;10.702;2023-06-14T06:02:50;5.63;;;3.55;;
45620;SDS011;31345;51.522;10.702;2023-06-14T06:05:18;5.10;;;3.20;;
45620;SDS011;31345;51.522;10.702;2023-06-14T06:07:45;4.50;;;3.45;;
45620;SDS011;31345;51.522;10.702;2023-06-14T06:10:19;5.60;;;3.58;;
45620;SDS011;31345;51.522;10.702;2023-06-14T06:12:52;5.40;;;3.47;;
45620;SDS011;31345;51.522;10.702;2023-06-14T06:15:20;6.47;;;3.67;;
45620;SDS011;31345;51.522;10.702;2023-06-14T06:17:47;6.35;;;3.65;;
45620;SDS011;31345;51.522;10.702;2023-06-14T06:20:15;5.07;;;3.20;;
45620;SDS011;31345;51.522;10.702;2023-06-14T06:22:48;5.22;;;3.25;;
45620;SDS011;31345;51.522;10.702;2023-06-14T06:25:16;5.32;;;3.70;;
45620;SDS011;31345;51.522;10.702;2023-06-14T06:27:50;5.32;;;3.20;;
45620;SDS011;31345;51.522;10.702;2023-06-14T06:30:24;4.85;;;3.58;;
45620;SDS011;31345;51.522;10.702;2023-06-14T06:32:52;5.63;;;3.63;;
45620;SDS011;31345;51.522;10.702;2023-06-14T06:35:26;6.07;;;3.65;;
45620;SDS011;31345;51.522;10.702;2023-06-14T06:37:59;6.45;;;2.88;;
45620;SDS011;31345;51.522;10.702;2023-06-14T06:40:32;5.03;;;3.28;;
45620;SDS011;31345;51.522;10.702;2023-06-14T06:43:05;4.55;;;3.20;;
45620;SDS011;31345;51.522;10.702;2023-06-14T06:45:47;5.65;;;3.13;;
45620;SDS011;31345;51.522;10.702;2023-06-14T06:48:19;5.18;;;3.25;;
45620;SDS011;31345;51.522;10.702;2023-06-14T06:50:47;6.22;;;3.08;;
45620;SDS011;31345;51.522;10.702;2023-06-14T06:53:20;5.05;;;3.38;;
45620;SDS011;31345;51.522;10.702;2023-06-14T06:55:48;4.28;;;2.97;;
45620;SDS011;31345;51.522;10.702;2023-06-14T06:58:19;4.95;;;3.38;;
45620;SDS011;31345;51.522;10.702;2023-06-14T07:00:54;4.40;;;3.30;;
45620;SDS011;31345;51.522;10.702;2023-06-14T07:03:21;8.23;;;3.20;;
45620;SDS011;31345;51.522;10.702;2023-06-14T07:05:54;4.55;;;2.97;;
45620;SDS011;31345;51.522;10.702;2023-06-14T07:08:21;6.03;;;2.83;;
45620;SDS011;31345;51.522;10.702;2023-06-14T07:10:54;7.32;;;3.42;;
45620;SDS011;31345;51.522;10.702;2023-06-14T07:13:26;6.38;;;3.03;;
45620;SDS011;31345;51.522;10.702;2023-06-14T07:16:00;4.97;;;2.92;;
45620;SDS011;31345;51.522;10.702;2023-06-14T07:18:29;6.13;;;3.20;;
45620;SDS011;31345;51.522;10.702;2023-06-14T07:21:01;7.60;;;2.72;;
45620;SDS011;31345;51.522;10.702;2023-06-14T07:23:34;5.80;;;3.45;;
45620;SDS011;31345;51.522;10.702;2023-06-14T07:26:07;6.88;;;2.97;;
45620;SDS011;31345;51.522;10.702;2023-06-14T07:28:39;5.75;;;3.17;;
45620;SDS011;31345;51.522;10.702;2023-06-14T07:31:13;5.65;;;2.80;;
45620;SDS011;31345;51.522;10.702;2023-06-14T07:33:41;4.97;;;3.20;;
45620;SDS011;31345;51.522;10.702;2023-06-14T07:36:08;4.82;;;2.83;;
45620;SDS011;31345;51.522;10.702;2023-06-14T07:38:41;4.75;;;3.10;;
45620;SDS011;31345;51.522;10.702;2023-06-14T07:41:13;4.95;;;2.85;;
45620;SDS011;31345;51.522;10.702;2023-06-14T07:43:46;4.07;;;2.72;;
45620;SDS011;31345;51.522;10.702;2023-06-14T07:46:15;6.88;;;2.95;;
45620;SDS011;31345;51.522;10.702;2023-06-14T07:48:42;5.63;;;3.08;;
45620;SDS011;31345;51.522;10.702;2023-06-14T07:51:15;5.30;;;3.35;;
45620;SDS011;31345;51.522;10.702;2023-06-14T07:53:47;4.40;;;2.85;;
45620;SDS011;31345;51.522;10.702;2023-06-14T07:56:15;7.55;;;2.83;;
45620;SDS011;31345;51.522;10.702;2023-06-14T07:58:48;10.32;;;3.42;;
45620;SDS011;31345;51.522;10.702;2023-06-14T08:01:16;6.47;;;3.08;;
45620;SDS011;31345;51.522;10.702;2023-06-14T08:03:51;4.00;;;2.55;;
45620;SDS011;31345;51.522;10.702;2023-06-14T08:06:23;4.85;;;3.13;;
45620;SDS011;31345;51.522;10.702;2023-06-14T08:08:56;6.82;;;2.97;;
45620;SDS011;31345;51.522;10.702;2023-06-14T08:11:23;5.75;;;3.05;;
45620;SDS011;31345;51.522;10.702;2023-06-14T08:13:57;4.70;;;2.70;;
45620;SDS011;31345;51.522;10.702;2023-06-14T08:16:31;6.75;;;3.10;;
45620;SDS011;31345;51.522;10.702;2023-06-14T08:19:10;5.18;;;2.92;;
45620;SDS011;31345;51.522;10.702;2023-06-14T08:21:42;3.97;;;3.00;;
45620;SDS011;31345;51.522;10.702;2023-06-14T08:24:15;4.43;;;3.13;;
45620;SDS011;31345;51.522;10.702;2023-06-14T08:26:49;4.55;;;3.50;;
45620;SDS011;31345;51.522;10.702;2023-06-14T08:29:17;5.82;;;3.38;;
45620;SDS011;31345;51.522;10.702;2023-06-14T08:31:55;4.53;;;3.22;;
45620;SDS011;31345;51.522;10.702;2023-06-14T08:34:28;4.65;;;3.13;;
45620;SDS011;31345;51.522;10.702;2023-06-14T08:36:55;5.50;;;3.20;;
45620;SDS011;31345;51.522;10.702;2023-06-14T08:39:28;5.15;;;3.10;;
45620;SDS011;31345;51.522;10.702;2023-06-14T08:41:55;8.68;;;3.05;;
45620;SDS011;31345;51.522;10.702;2023-06-14T08:44:24;6.78;;;3.05;;
45620;SDS011;31345;51.522;10.702;2023-06-14T08:46:58;5.47;;;2.97;;
45620;SDS011;31345;51.522;10.702;2023-06-14T08:49:26;7.85;;;3.50;;
45620;SDS011;31345;51.522;10.702;2023-06-14T08:51:56;4.72;;;3.20;;
45620;SDS011;31345;51.522;10.702;2023-06-14T08:54:30;4.90;;;3.45;;
45620;SDS011;31345;51.522;10.702;2023-06-14T08:57:05;7.13;;;3.35;;
45620;SDS011;31345;51.522;10.702;2023-06-14T08:59:39;6.38;;;3.15;;
45620;SDS011;31345;51.522;10.702;2023-06-14T09:02:21;4.55;;;3.15;;
45620;SDS011;31345;51.522;10.702;2023-06-14T09:04:53;7.32;;;3.22;;
45620;SDS011;31345;51.522;10.702;2023-06-14T09:07:25;4.85;;;3.10;;
45620;SDS011;31345;51.522;10.702;2023-06-14T09:10:05;3.97;;;2.75;;
45620;SDS011;31345;51.522;10.702;2023-06-14T09:12:40;6.13;;;3.33;;
45620;SDS011;31345;51.522;10.702;2023-06-14T09:15:13;4.93;;;3.05;;
45620;SDS011;31345;51.522;10.702;2023-06-14T09:17:47;4.13;;;3.13;;
45620;SDS011;31345;51.522;10.702;2023-06-14T09:20:19;5.00;;;3.25;;
45620;SDS011;31345;51.522;10.702;2023-06-14T09:22:53;4.32;;;2.90;;
45620;SDS011;31345;51.522;10.702;2023-06-14T09:25:25;3.75;;;3.13;;
45620;SDS011;31345;51.522;10.702;2023-06-14T09:27:53;6.25;;;3.40;;
45620;SDS011;31345;51.522;10.702;2023-06-14T09:30:25;6.10;;;3.20;;
45620;SDS011;31345;51.522;10.702;2023-06-14T09:32:54;9.93;;;3.35;;
45620;SDS011;31345;51.522;10.702;2023-06-14T09:35:27;6.85;;;3.10;;
45620;SDS011;31345;51.522;10.702;2023-06-14T09:37:57;11.48;;;3.65;;
45620;SDS011;31345;51.522;10.702;2023-06-14T09:40:24;6.28;;;3.70;;
45620;SDS011;31345;51.522;10.702;2023-06-14T09:42:57;6.18;;;3.63;;
45620;SDS011;31345;51.522;10.702;2023-06-14T09:45:30;4.50;;;2.83;;
45620;SDS011;31345;51.522;10.702;2023-06-14T09:48:04;4.20;;;2.72;;
45620;SDS011;31345;51.522;10.702;2023-06-14T09:50:39;6.97;;;3.08;;
45620;SDS011;31345;51.522;10.702;2023-06-14T09:53:07;4.45;;;2.60;;
45620;SDS011;31345;51.522;10.702;2023-06-14T09:55:42;5.53;;;3.00;;
45620;SDS011;31345;51.522;10.702;2023-06-14T09:58:15;15.98;;;3.95;;
45620;SDS011;31345;51.522;10.702;2023-06-14T10:00:43;5.28;;;2.97;;
45620;SDS011;31345;51.522;10.702;2023-06-14T10:03:20;6.05;;;2.85;;
45620;SDS011;31345;51.522;10.702;2023-06-14T10:05:57;4.32;;;3.08;;
45620;SDS011;31345;51.522;10.702;2023-06-14T10:08:30;7.20;;;3.35;;
45620;SDS011;31345;51.522;10.702;2023-06-14T10:11:05;6.68;;;3.25;;
45620;SDS011;31345;51.522;10.702;2023-06-14T10:13:37;4.90;;;2.88;;
45620;SDS011;31345;51.522;10.702;2023-06-14T10:16:12;5.47;;;2.70;;
45620;SDS011;31345;51.522;10.702;2023-06-14T10:18:51;4.70;;;2.83;;
45620;SDS011;31345;51.522;10.702;2023-06-14T10:21:33;7.28;;;2.72;;
45620;SDS011;31345;51.522;10.702;2023-06-14T10:24:15;3.67;;;2.33;;
45620;SDS011;31345;51.522;10.702;2023-06-14T10:26:51;5.07;;;2.47;;
45620;SDS011;31345;51.522;10.702;2023-06-14T10:29:24;5.85;;;2.60;;
45620;SDS011;31345;51.522;10.702;2023-06-14T10:31:57;5.53;;;2.70;;
45620;SDS011;31345;51.522;10.702;2023-06-14T10:34:31;4.43;;;2.67;;
45620;SDS011;31345;51.522;10.702;2023-06-14T10:37:05;4.60;;;2.50;;
45620;SDS011;31345;51.522;10.702;2023-06-14T10:39:37;5.32;;;3.00;;
45620;SDS011;31345;51.522;10.702;2023-06-14T10:42:12;3.08;;;2.20;;
45620;SDS011;31345;51.522;10.702;2023-06-14T10:44:45;3.80;;;2.13;;
45620;SDS011;31345;51.522;10.702;2023-06-14T10:47:25;6.03;;;2.80;;
45620;SDS011;31345;51.522;10.702;2023-06-14T10:50:04;4.63;;;2.92;;
45620;SDS011;31345;51.522;10.702;2023-06-14T10:52:39;6.25;;;2.78;;
45620;SDS011;31345;51.522;10.702;2023-06-14T10:55:12;3.30;;;2.55;;
45620;SDS011;31345;51.522;10.702;2023-06-14T10:57:46;5.53;;;2.78;;
45620;SDS011;31345;51.522;10.702;2023-06-14T11:00:22;3.63;;;2.55;;
45620;SDS011;31345;51.522;10.702;2023-06-14T11:06:14;3.10;;;2.30;;
45620;SDS011;31345;51.522;10.702;2023-06-14T11:11:52;4.07;;;2.60;;
45620;SDS011;31345;51.522;10.702;2023-06-14T11:14:29;4.57;;;2.53;;
45620;SDS011;31345;51.522;10.702;2023-06-14T11:17:02;2.92;;;2.35;;
45620;SDS011;31345;51.522;10.702;2023-06-14T11:19:35;5.97;;;2.67;;
45620;SDS011;31345;51.522;10.702;2023-06-14T11:22:04;3.60;;;2.78;;
45620;SDS011;31345;51.522;10.702;2023-06-14T11:24:37;4.18;;;2.70;;
45620;SDS011;31345;51.522;10.702;2023-06-14T11:27:09;5.05;;;2.65;;
45620;SDS011;31345;51.522;10.702;2023-06-14T11:29:47;3.53;;;2.40;;
45620;SDS011;31345;51.522;10.702;2023-06-14T11:32:20;5.38;;;2.47;;
45620;SDS011;31345;51.522;10.702;2023-06-14T11:34:53;3.70;;;2.95;;
45620;SDS011;31345;51.522;10.702;2023-06-14T11:37:28;5.13;;;2.40;;
45620;SDS011;31345;51.522;10.702;2023-06-14T11:39:56;3.38;;;2.40;;
45620;SDS011;31345;51.522;10.702;2023-06-14T11:42:29;3.15;;;2.10;;
45620;SDS011;31345;51.522;10.702;2023-06-14T11:45:02;4.18;;;2.45;;
45620;SDS011;31345;51.522;10.702;2023-06-14T11:47:36;4.05;;;2.40;;
45620;SDS011;31345;51.522;10.702;2023-06-14T11:50:05;4.28;;;2.10;;
45620;SDS011;31345;51.522;10.702;2023-06-14T11:52:40;3.58;;;1.90;;
45620;SDS011;31345;51.522;10.702;2023-06-14T11:55:13;6.18;;;2.40;;
45620;SDS011;31345;51.522;10.702;2023-06-14T11:57:46;5.22;;;2.25;;
45620;SDS011;31345;51.522;10.702;2023-06-14T12:00:18;4.75;;;2.20;;
45620;SDS011;31345;51.522;10.702;2023-06-14T12:02:52;3.13;;;2.17;;
45620;SDS011;31345;51.522;10.702;2023-06-14T12:05:26;4.05;;;2.30;;
45620;SDS011;31345;51.522;10.702;2023-06-14T12:08:04;4.60;;;2.13;;
45620;SDS011;31345;51.522;10.702;2023-06-14T12:10:42;3.75;;;1.95;;
45620;SDS011;31345;51.522;10.702;2023-06-14T12:13:16;2.80;;;1.92;;
45620;SDS011;31345;51.522;10.702;2023-06-14T12:15:48;2.90;;;1.75;;
45620;SDS011;31345;51.522;10.702;2023-06-14T12:18:32;3.20;;;1.88;;
45620;SDS011;31345;51.522;10.702;2023-06-14T12:21:02;2.92;;;1.98;;
45620;SDS011;31345;51.522;10.702;2023-06-14T12:23:45;3.95;;;2.08;;
45620;SDS011;31345;51.522;10.702;2023-06-14T12:26:18;4.80;;;2.15;;
45620;SDS011;31345;51.522;10.702;2023-06-14T12:28:52;3.03;;;1.92;;
45620;SDS011;31345;51.522;10.702;2023-06-14T12:31:20;4.68;;;1.90;;
45620;SDS011;31345;51.522;10.702;2023-06-14T12:33:53;3.33;;;1.90;;
45620;SDS011;31345;51.522;10.702;2023-06-14T12:36:20;4.60;;;1.92;;
45620;SDS011;31345;51.522;10.702;2023-06-14T12:38:54;2.90;;;1.77;;
45620;SDS011;31345;51.522;10.702;2023-06-14T12:41:27;4.72;;;2.25;;
45620;SDS011;31345;51.522;10.702;2023-06-14T12:44:00;2.72;;;1.92;;
45620;SDS011;31345;51.522;10.702;2023-06-14T12:46:30;6.03;;;2.15;;
45620;SDS011;31345;51.522;10.702;2023-06-14T12:49:00;4.13;;;2.20;;
45620;SDS011;31345;51.522;10.702;2023-06-14T12:51:28;3.83;;;2.40;;
45620;SDS011;31345;51.522;10.702;2023-06-14T12:53:57;3.40;;;2.03;;
45620;SDS011;31345;51.522;10.702;2023-06-14T12:56:25;3.55;;;2.30;;
45620;SDS011;31345;51.522;10.702;2023-06-14T12:58:57;4.18;;;2.03;;
45620;SDS011;31345;51.522;10.702;2023-06-14T13:01:25;3.55;;;2.30;;
45620;SDS011;31345;51.522;10.702;2023-06-14T13:03:58;3.83;;;2.25;;
45620;SDS011;31345;51.522;10.702;2023-06-14T13:06:31;3.92;;;2.20;;
45620;SDS011;31345;51.522;10.702;2023-06-14T13:09:00;3.35;;;2.20;;
45620;SDS011;31345;51.522;10.702;2023-06-14T13:11:29;7.07;;;2.10;;
45620;SDS011;31345;51.522;10.702;2023-06-14T13:13:57;2.40;;;1.90;;
45620;SDS011;31345;51.522;10.702;2023-06-14T13:16:30;4.00;;;2.40;;
45620;SDS011;31345;51.522;10.702;2023-06-14T13:19:02;4.85;;;2.40;;
45620;SDS011;31345;51.522;10.702;2023-06-14T13:21:35;3.67;;;2.22;;
45620;SDS011;31345;51.522;10.702;2023-06-14T13:24:08;4.32;;;2.38;;
45620;SDS011;31345;51.522;10.702;2023-06-14T13:26:36;4.35;;;2.20;;
45620;SDS011;31345;51.522;10.702;2023-06-14T13:29:08;3.13;;;2.10;;
45620;SDS011;31345;51.522;10.702;2023-06-14T13:31:41;4.20;;;2.20;;
45620;SDS011;31345;51.522;10.702;2023-06-14T13:34:09;5.43;;;2.42;;
45620;SDS011;31345;51.522;10.702;2023-06-14T13:36:41;3.88;;;2.47;;
45620;SDS011;31345;51.522;10.702;2023-06-14T13:39:15;3.88;;;2.40;;
45620;SDS011;31345;51.522;10.702;2023-06-14T13:41:47;3.28;;;2.50;;
45620;SDS011;31345;51.522;10.702;2023-06-14T13:44:20;4.43;;;2.60;;
45620;SDS011;31345;51.522;10.702;2023-06-14T13:46:53;5.10;;;2.78;;
45620;SDS011;31345;51.522;10.702;2023-06-14T13:49:20;5.57;;;2.70;;
45620;SDS011;31345;51.522;10.702;2023-06-14T13:51:53;5.07;;;2.95;;
45620;SDS011;31345;51.522;10.702;2023-06-14T13:54:22;3.83;;;3.00;;
45620;SDS011;31345;51.522;10.702;2023-06-14T13:56:54;7.57;;;3.00;;
45620;SDS011;31345;51.522;10.702;2023-06-14T13:59:22;4.90;;;2.95;;
45620;SDS011;31345;51.522;10.702;2023-06-14T14:01:49;6.30;;;3.45;;
45620;SDS011;31345;51.522;10.702;2023-06-14T14:04:17;4.97;;;3.10;;
45620;SDS011;31345;51.522;10.702;2023-06-14T14:06:45;6.40;;;3.00;;
45620;SDS011;31345;51.522;10.702;2023-06-14T14:09:17;5.45;;;3.13;;
45620;SDS011;31345;51.522;10.702;2023-06-14T14:11:51;6.47;;;3.30;;
45620;SDS011;31345;51.522;10.702;2023-06-14T14:14:23;4.00;;;3.03;;
45620;SDS011;31345;51.522;10.702;2023-06-14T14:16:51;5.90;;;3.10;;
45620;SDS011;31345;51.522;10.702;2023-06-14T14:19:25;4.70;;;3.15;;
45620;SDS011;31345;51.522;10.702;2023-06-14T14:21:53;4.18;;;2.40;;
45620;SDS011;31345;51.522;10.702;2023-06-14T14:24:20;4.60;;;3.03;;
45620;SDS011;31345;51.522;10.702;2023-06-14T14:26:54;5.50;;;3.38;;
45620;SDS011;31345;51.522;10.702;2023-06-14T14:29:25;4.47;;;3.20;;
45620;SDS011;31345;51.522;10.702;2023-06-14T14:32:00;6.40;;;2.90;;
45620;SDS011;31345;51.522;10.702;2023-06-14T14:34:32;5.47;;;3.33;;
45620;SDS011;31345;51.522;10.702;2023-06-14T14:36:59;4.15;;;3.05;;
45620;SDS011;31345;51.522;10.702;2023-06-14T14:39:32;6.47;;;2.90;;
45620;SDS011;31345;51.522;10.702;2023-06-14T14:42:06;4.97;;;3.05;;
45620;SDS011;31345;51.522;10.702;2023-06-14T14:44:39;5.60;;;3.00;;
45620;SDS011;31345;51.522;10.702;2023-06-14T14:47:12;6.60;;;3.00;;
45620;SDS011;31345;51.522;10.702;2023-06-14T14:49:44;6.50;;;3.05;;
45620;SDS011;31345;51.522;10.702;2023-06-14T14:52:17;5.90;;;3.22;;
45620;SDS011;31345;51.522;10.702;2023-06-14T14:54:44;5.53;;;2.80;;
45620;SDS011;31345;51.522;10.702;2023-06-14T14:57:13;5.28;;;3.20;;
45620;SDS011;31345;51.522;10.702;2023-06-14T14:59:45;4.75;;;2.90;;
45620;SDS011;31345;51.522;10.702;2023-06-14T15:02:18;8.60;;;3.20;;
45620;SDS011;31345;51.522;10.702;2023-06-14T15:04:46;5.40;;;3.20;;
45620;SDS011;31345;51.522;10.702;2023-06-14T15:07:13;5.20;;;2.95;;